Upper Jay, New York
Current Conditions -  °F | °C
As of 9:27 PM on Saturday 22 Nov 2014 (Local Time) from KSLK Reporting Station
Haze Haze  
Wind Chill: 28°   Ceiling: 500
Heat Index: 36°   Visibility: 2.5mi
Dew Point: 34°   Wind: 13mph
Humidity: 93%   Direction: 230°SW
Pressure: 29.9"   Gusts: NA
Location:  44.34°N, 73.78°W
Report Text: KSLK 230227Z AUTO 23011KT 2 1/2SM BR OVC005 02/01 A2990 RMK AO2 T00220011
Loading
Personal Weather Stations






























Interactive Weather Map New forecast layout! Learn more

10-Day Weather Forecast

Advertisements
Track Severe Weather on mobile